EXS89LJ LIPX-EGBB
Flight info
| Callsign | EXS89LJ |
|---|---|
| Flight time | 1h 55m |
| Altitude | 40000 |
| Route | LEGLO DCT DILEB DCT ABREG DCT ELMUR DCT RIPUS DCT DITON DCT HOC DCT LUL DCT RLP DCT ROTSI DCT KOTUN DCT NINAL DCT ABNUR DCT DIMAL DCT ALESO T420 HEMEL |
| Aircraft | B738/M-SDE2E3FGHIRWXY/LB1 |
Departure
| Time | 2026-04-29 17:01 |
|---|---|
| Airport | Verona Villafranca Valerio Catullo Airport (LIPX) |
Arrival
| Time | 2026-04-29 18:57 |
|---|---|
| Airport | Birmingham Airport (EGBB) |
| Time | Latitude | Longitude | Altitude | Speed | Heading |
|---|---|---|---|---|---|
| 2026-04-29 16:59 | 45.38831 | 10.87525 | 229 ft | 0 kts | 137° |
| 2026-04-29 16:59 | 45.38829 | 10.87528 | 229 ft | 2 kts | 137° |
| 2026-04-29 17:00 | 45.38796 | 10.87572 | 230 ft | 11 kts | 135° |
| 2026-04-29 17:00 | 45.38753 | 10.87634 | 229 ft | 5 kts | 122° |
| 2026-04-29 17:00 | 45.38763 | 10.87680 | 229 ft | 5 kts | 47° |
| 2026-04-29 17:00 | 45.38787 | 10.87715 | 230 ft | 5 kts | 46° |
| 2026-04-29 17:01 | 45.38885 | 10.87858 | 231 ft | 50 kts | 46° |
| 2026-04-29 17:01 | 45.39297 | 10.88456 | 234 ft | 116 kts | 45° |
| 2026-04-29 17:01 | 45.39977 | 10.89430 | 415 ft | 150 kts | 52° |
| 2026-04-29 17:01 | 45.40671 | 10.90512 | 1162 ft | 150 kts | 53° |
| 2026-04-29 17:02 | 45.41047 | 10.91864 | 1843 ft | 154 kts | 87° |
| 2026-04-29 17:02 | 45.40756 | 10.93281 | 2667 ft | 149 kts | 113° |
| 2026-04-29 17:02 | 45.40258 | 10.94584 | 3352 ft | 155 kts | 113° |
| 2026-04-29 17:02 | 45.39728 | 10.95987 | 3795 ft | 174 kts | 114° |
| 2026-04-29 17:03 | 45.39116 | 10.97613 | 4008 ft | 198 kts | 115° |
| 2026-04-29 17:03 | 45.38429 | 10.99425 | 4208 ft | 217 kts | 115° |
| 2026-04-29 17:03 | 45.37692 | 11.01357 | 4521 ft | 231 kts | 117° |
| 2026-04-29 17:03 | 45.36914 | 11.03397 | 4935 ft | 240 kts | 117° |
| 2026-04-29 17:04 | 45.36094 | 11.05548 | 5176 ft | 257 kts | 117° |
| 2026-04-29 17:04 | 45.35216 | 11.07852 | 5602 ft | 271 kts | 118° |
| 2026-04-29 17:04 | 45.34316 | 11.10213 | 6217 ft | 280 kts | 118° |
| 2026-04-29 17:04 | 45.33392 | 11.12672 | 6919 ft | 284 kts | 114° |
| 2026-04-29 17:05 | 45.33055 | 11.15420 | 7605 ft | 285 kts | 80° |
| 2026-04-29 17:05 | 45.33815 | 11.17977 | 8353 ft | 284 kts | 49° |
| 2026-04-29 17:05 | 45.35324 | 11.19763 | 8981 ft | 285 kts | 24° |
| 2026-04-29 17:05 | 45.37223 | 11.20536 | 9639 ft | 286 kts | 0° |
| 2026-04-29 17:06 | 45.39169 | 11.20123 | 10333 ft | 282 kts | 335° |
| 2026-04-29 17:06 | 45.40941 | 11.18801 | 10698 ft | 297 kts | 326° |
| 2026-04-29 17:06 | 45.42742 | 11.17168 | 10919 ft | 317 kts | 324° |
| 2026-04-29 17:06 | 45.44596 | 11.15426 | 11279 ft | 330 kts | 325° |
| 2026-04-29 17:07 | 45.46524 | 11.13598 | 11896 ft | 335 kts | 324° |
| 2026-04-29 17:07 | 45.47835 | 11.12353 | 12458 ft | 333 kts | 325° |
| 2026-04-29 17:07 | 45.50409 | 11.09914 | 13329 ft | 341 kts | 325° |
| 2026-04-29 17:07 | 45.52386 | 11.08042 | 14059 ft | 343 kts | 325° |
| 2026-04-29 17:08 | 45.54383 | 11.06152 | 14786 ft | 344 kts | 325° |
| 2026-04-29 17:08 | 45.56387 | 11.04256 | 15484 ft | 347 kts | 325° |
| 2026-04-29 17:08 | 45.58410 | 11.02341 | 16180 ft | 350 kts | 325° |
| 2026-04-29 17:08 | 45.60421 | 11.00436 | 16832 ft | 354 kts | 325° |
| 2026-04-29 17:09 | 45.62491 | 10.98481 | 17437 ft | 359 kts | 325° |
| 2026-04-29 17:09 | 45.64586 | 10.96493 | 18096 ft | 363 kts | 325° |
| 2026-04-29 17:09 | 45.66690 | 10.94491 | 18765 ft | 364 kts | 324° |
| 2026-04-29 17:09 | 45.68808 | 10.92477 | 19379 ft | 367 kts | 324° |
| 2026-04-29 17:10 | 45.70946 | 10.90441 | 19987 ft | 370 kts | 324° |
| 2026-04-29 17:10 | 45.73101 | 10.88389 | 20624 ft | 373 kts | 324° |
| 2026-04-29 17:10 | 45.75265 | 10.86326 | 21222 ft | 376 kts | 324° |
| 2026-04-29 17:10 | 45.77450 | 10.84241 | 21806 ft | 379 kts | 324° |
| 2026-04-29 17:11 | 45.79621 | 10.82168 | 22361 ft | 382 kts | 324° |
| 2026-04-29 17:11 | 45.81837 | 10.80050 | 22922 ft | 384 kts | 324° |
| 2026-04-29 17:11 | 45.84067 | 10.77916 | 23482 ft | 387 kts | 324° |
| 2026-04-29 17:11 | 45.86314 | 10.75764 | 23965 ft | 390 kts | 323° |
| 2026-04-29 17:12 | 45.88563 | 10.73608 | 24556 ft | 387 kts | 323° |
| 2026-04-29 17:12 | 45.90800 | 10.71463 | 25071 ft | 388 kts | 323° |
| 2026-04-29 17:12 | 45.93045 | 10.69272 | 25440 ft | 391 kts | 321° |
| 2026-04-29 17:12 | 45.94443 | 10.67649 | 25691 ft | 391 kts | 315° |
| 2026-04-29 17:13 | 45.97054 | 10.63999 | 26284 ft | 392 kts | 313° |
| 2026-04-29 17:13 | 45.98981 | 10.61228 | 26714 ft | 392 kts | 313° |
| 2026-04-29 17:13 | 46.00884 | 10.58486 | 27135 ft | 393 kts | 313° |
| 2026-04-29 17:13 | 46.02824 | 10.55700 | 27486 ft | 395 kts | 313° |
| 2026-04-29 17:14 | 46.04776 | 10.52909 | 27849 ft | 397 kts | 313° |
| 2026-04-29 17:14 | 46.06745 | 10.50100 | 28242 ft | 399 kts | 313° |
| 2026-04-29 17:14 | 46.08720 | 10.47288 | 28644 ft | 401 kts | 313° |
| 2026-04-29 17:14 | 46.10702 | 10.44468 | 29155 ft | 400 kts | 313° |
| 2026-04-29 17:15 | 46.12685 | 10.41647 | 29568 ft | 401 kts | 313° |
| 2026-04-29 17:15 | 46.14675 | 10.38813 | 29922 ft | 403 kts | 313° |
| 2026-04-29 17:15 | 46.16652 | 10.35995 | 30169 ft | 407 kts | 313° |
| 2026-04-29 17:15 | 46.18668 | 10.33117 | 30465 ft | 409 kts | 313° |
| 2026-04-29 17:16 | 46.20689 | 10.30231 | 30895 ft | 407 kts | 313° |
| 2026-04-29 17:16 | 46.22691 | 10.27370 | 31381 ft | 403 kts | 313° |
| 2026-04-29 17:16 | 46.24679 | 10.24526 | 31809 ft | 402 kts | 313° |
| 2026-04-29 17:16 | 46.26661 | 10.21686 | 32170 ft | 401 kts | 313° |
| 2026-04-29 17:17 | 46.28641 | 10.18845 | 32509 ft | 401 kts | 312° |
| 2026-04-29 17:17 | 46.30618 | 10.16006 | 32867 ft | 399 kts | 312° |
| 2026-04-29 17:17 | 46.32582 | 10.13182 | 33247 ft | 398 kts | 312° |
| 2026-04-29 17:17 | 46.34516 | 10.10399 | 33574 ft | 397 kts | 312° |
| 2026-04-29 17:18 | 46.36471 | 10.07581 | 33945 ft | 396 kts | 312° |
| 2026-04-29 17:18 | 46.38419 | 10.04772 | 34276 ft | 395 kts | 312° |
| 2026-04-29 17:18 | 46.40366 | 10.01959 | 34493 ft | 396 kts | 312° |
| 2026-04-29 17:18 | 46.42321 | 9.99133 | 34679 ft | 398 kts | 312° |
| 2026-04-29 17:19 | 46.44278 | 9.96301 | 34913 ft | 398 kts | 312° |
| 2026-04-29 17:19 | 46.46234 | 9.93468 | 35153 ft | 398 kts | 312° |
| 2026-04-29 17:19 | 46.48197 | 9.90621 | 35359 ft | 399 kts | 312° |
| 2026-04-29 17:19 | 46.50159 | 9.87773 | 35563 ft | 400 kts | 312° |
| 2026-04-29 17:20 | 46.52099 | 9.84953 | 35760 ft | 400 kts | 313° |
| 2026-04-29 17:20 | 46.54067 | 9.82089 | 35947 ft | 401 kts | 313° |
| 2026-04-29 17:20 | 46.56038 | 9.79219 | 36222 ft | 400 kts | 313° |
| 2026-04-29 17:20 | 46.57997 | 9.76363 | 36483 ft | 399 kts | 313° |
| 2026-04-29 17:21 | 46.59960 | 9.73499 | 36647 ft | 399 kts | 313° |
| 2026-04-29 17:21 | 46.61922 | 9.70635 | 36754 ft | 401 kts | 313° |
| 2026-04-29 17:21 | 46.63894 | 9.67748 | 36899 ft | 403 kts | 313° |
| 2026-04-29 17:21 | 46.65871 | 9.64851 | 37125 ft | 403 kts | 313° |
| 2026-04-29 17:22 | 46.67819 | 9.61995 | 37313 ft | 404 kts | 313° |
| 2026-04-29 17:22 | 46.69804 | 9.59081 | 37376 ft | 406 kts | 313° |
| 2026-04-29 17:22 | 46.71789 | 9.56164 | 37664 ft | 405 kts | 313° |
| 2026-04-29 17:22 | 46.73771 | 9.53250 | 37877 ft | 405 kts | 313° |
| 2026-04-29 17:23 | 46.75756 | 9.50328 | 38056 ft | 406 kts | 313° |
| 2026-04-29 17:23 | 46.77746 | 9.47393 | 38143 ft | 408 kts | 313° |
| 2026-04-29 17:23 | 46.81748 | 9.41484 | 38143 ft | 408 kts | 313° |
| 2026-04-29 17:24 | 46.85687 | 9.35655 | 38121 ft | 405 kts | 313° |
| 2026-04-29 17:24 | 46.89629 | 9.29810 | 38129 ft | 402 kts | 313° |
| 2026-04-29 17:25 | 46.93545 | 9.23987 | 38125 ft | 401 kts | 313° |
| 2026-04-29 17:25 | 46.97447 | 9.18172 | 38123 ft | 400 kts | 313° |
| 2026-04-29 17:26 | 47.01316 | 9.12394 | 38135 ft | 400 kts | 313° |
| 2026-04-29 17:26 | 47.05209 | 9.06568 | 38127 ft | 400 kts | 313° |
| 2026-04-29 17:27 | 47.09114 | 9.00715 | 38089 ft | 405 kts | 313° |
| 2026-04-29 17:27 | 47.13056 | 8.94785 | 38141 ft | 405 kts | 313° |
| 2026-04-29 17:28 | 47.16320 | 8.88077 | 38130 ft | 405 kts | 297° |
| 2026-04-29 17:28 | 47.18391 | 8.80444 | 38131 ft | 406 kts | 291° |
| 2026-04-29 17:29 | 47.20321 | 8.72640 | 38135 ft | 406 kts | 291° |
| 2026-04-29 17:29 | 47.21942 | 8.66158 | 38125 ft | 406 kts | 291° |
| 2026-04-29 17:30 | 47.24244 | 8.57065 | 38133 ft | 406 kts | 291° |
| 2026-04-29 17:30 | 47.26202 | 8.49327 | 38137 ft | 406 kts | 291° |
| 2026-04-29 17:31 | 47.28168 | 8.41522 | 38131 ft | 407 kts | 291° |
| 2026-04-29 17:31 | 47.30129 | 8.33702 | 38138 ft | 407 kts | 291° |
| 2026-04-29 17:32 | 47.32084 | 8.25878 | 38120 ft | 407 kts | 291° |
| 2026-04-29 17:32 | 47.34038 | 8.18029 | 38127 ft | 408 kts | 291° |
| 2026-04-29 17:33 | 47.35974 | 8.10228 | 38136 ft | 408 kts | 291° |
| 2026-04-29 17:33 | 47.37920 | 8.02358 | 38132 ft | 408 kts | 291° |
| 2026-04-29 17:34 | 47.39861 | 7.94481 | 38124 ft | 409 kts | 291° |
| 2026-04-29 17:34 | 47.41799 | 7.86588 | 38118 ft | 409 kts | 291° |
| 2026-04-29 17:35 | 47.44698 | 7.74730 | 38113 ft | 409 kts | 291° |
| 2026-04-29 17:36 | 47.46620 | 7.66811 | 38105 ft | 410 kts | 290° |
| 2026-04-29 17:36 | 47.48071 | 7.58721 | 38098 ft | 411 kts | 285° |
| 2026-04-29 17:37 | 47.49404 | 7.50524 | 38089 ft | 410 kts | 285° |
| 2026-04-29 17:37 | 47.50741 | 7.42335 | 38103 ft | 409 kts | 285° |
| 2026-04-29 17:38 | 47.52085 | 7.34158 | 38108 ft | 409 kts | 285° |
| 2026-04-29 17:38 | 47.53427 | 7.25996 | 38104 ft | 408 kts | 285° |
| 2026-04-29 17:39 | 47.54756 | 7.17883 | 38091 ft | 408 kts | 285° |
| 2026-04-29 17:39 | 47.56089 | 7.09708 | 38072 ft | 408 kts | 285° |
| 2026-04-29 17:40 | 47.57412 | 7.01544 | 38081 ft | 408 kts | 285° |
| 2026-04-29 17:40 | 47.58731 | 6.93375 | 38081 ft | 408 kts | 285° |
| 2026-04-29 17:41 | 47.60035 | 6.85254 | 38084 ft | 408 kts | 285° |
| 2026-04-29 17:41 | 47.61344 | 6.77060 | 38081 ft | 409 kts | 285° |
| 2026-04-29 17:42 | 47.62650 | 6.68847 | 38069 ft | 409 kts | 285° |
| 2026-04-29 17:42 | 47.63951 | 6.60625 | 38075 ft | 410 kts | 285° |
| 2026-04-29 17:43 | 47.65240 | 6.52435 | 38081 ft | 411 kts | 285° |
| 2026-04-29 17:43 | 47.66534 | 6.44169 | 38081 ft | 412 kts | 285° |
| 2026-04-29 17:44 | 47.67608 | 6.37289 | 38074 ft | 412 kts | 285° |
| 2026-04-29 17:44 | 47.68722 | 6.31873 | 38066 ft | 410 kts | 296° |
| 2026-04-29 17:44 | 47.70036 | 6.28133 | 38076 ft | 408 kts | 300° |
| 2026-04-29 17:45 | 47.72726 | 6.20695 | 38071 ft | 409 kts | 299° |
| 2026-04-29 17:45 | 47.75384 | 6.13289 | 38079 ft | 409 kts | 299° |
| 2026-04-29 17:46 | 47.78060 | 6.05820 | 38074 ft | 409 kts | 299° |
| 2026-04-29 17:46 | 47.80734 | 5.98342 | 38083 ft | 409 kts | 299° |
| 2026-04-29 17:47 | 47.83401 | 5.90861 | 38067 ft | 409 kts | 299° |
| 2026-04-29 17:47 | 47.86044 | 5.83431 | 38083 ft | 408 kts | 299° |
| 2026-04-29 17:48 | 47.88697 | 5.75950 | 38086 ft | 408 kts | 299° |
| 2026-04-29 17:48 | 47.91345 | 5.68460 | 38085 ft | 409 kts | 299° |
| 2026-04-29 17:49 | 47.93991 | 5.60957 | 38095 ft | 409 kts | 299° |
| 2026-04-29 17:49 | 47.96630 | 5.53449 | 38084 ft | 409 kts | 299° |
| 2026-04-29 17:50 | 47.99246 | 5.45986 | 38092 ft | 408 kts | 299° |
| 2026-04-29 17:50 | 48.01876 | 5.38464 | 38088 ft | 409 kts | 299° |
| 2026-04-29 17:51 | 48.04501 | 5.30932 | 38093 ft | 409 kts | 298° |
| 2026-04-29 17:51 | 48.07106 | 5.23436 | 38091 ft | 409 kts | 298° |
| 2026-04-29 17:52 | 48.09725 | 5.15879 | 38086 ft | 409 kts | 298° |
| 2026-04-29 17:52 | 48.12340 | 5.08311 | 38068 ft | 410 kts | 298° |
| 2026-04-29 17:53 | 48.14954 | 5.00723 | 38093 ft | 410 kts | 298° |
| 2026-04-29 17:53 | 48.17123 | 4.94412 | 38081 ft | 410 kts | 298° |
| 2026-04-29 17:54 | 48.20155 | 4.85561 | 38082 ft | 411 kts | 298° |
| 2026-04-29 17:54 | 48.22760 | 4.77931 | 38081 ft | 412 kts | 298° |
| 2026-04-29 17:55 | 48.25367 | 4.70277 | 38061 ft | 412 kts | 298° |
| 2026-04-29 17:55 | 48.27594 | 4.63971 | 38075 ft | 411 kts | 303° |
| 2026-04-29 17:56 | 48.31194 | 4.57340 | 38090 ft | 410 kts | 312° |
| 2026-04-29 17:56 | 48.35647 | 4.49940 | 38096 ft | 411 kts | 312° |
| 2026-04-29 17:57 | 48.39466 | 4.43526 | 38081 ft | 412 kts | 312° |
| 2026-04-29 17:57 | 48.42633 | 4.38162 | 38084 ft | 412 kts | 312° |
| 2026-04-29 17:58 | 48.46440 | 4.31687 | 38082 ft | 413 kts | 312° |
| 2026-04-29 17:58 | 48.50864 | 4.24141 | 38084 ft | 413 kts | 312° |
| 2026-04-29 17:59 | 48.54053 | 4.18690 | 38096 ft | 414 kts | 311° |
| 2026-04-29 17:59 | 48.57831 | 4.12217 | 38103 ft | 414 kts | 311° |
| 2026-04-29 18:00 | 48.61635 | 4.05682 | 38097 ft | 415 kts | 311° |
| 2026-04-29 18:00 | 48.65440 | 3.99130 | 38105 ft | 415 kts | 311° |
| 2026-04-29 18:01 | 48.69243 | 3.92566 | 38102 ft | 415 kts | 311° |
| 2026-04-29 18:01 | 48.73044 | 3.86066 | 38099 ft | 415 kts | 314° |
| 2026-04-29 18:02 | 48.77126 | 3.79894 | 38103 ft | 414 kts | 316° |
| 2026-04-29 18:02 | 48.81278 | 3.73832 | 38104 ft | 414 kts | 316° |
| 2026-04-29 18:03 | 48.85412 | 3.67738 | 38107 ft | 414 kts | 316° |
| 2026-04-29 18:03 | 48.89499 | 3.61652 | 38110 ft | 414 kts | 316° |
| 2026-04-29 18:04 | 48.93605 | 3.55504 | 38103 ft | 414 kts | 315° |
| 2026-04-29 18:04 | 48.97702 | 3.49348 | 38090 ft | 414 kts | 315° |
| 2026-04-29 18:05 | 49.01792 | 3.43190 | 38109 ft | 413 kts | 315° |
| 2026-04-29 18:05 | 49.05852 | 3.37062 | 38110 ft | 414 kts | 315° |
| 2026-04-29 18:06 | 49.09942 | 3.30875 | 38106 ft | 415 kts | 315° |
| 2026-04-29 18:06 | 49.14039 | 3.24662 | 38108 ft | 415 kts | 315° |
| 2026-04-29 18:07 | 49.18140 | 3.18427 | 38112 ft | 416 kts | 315° |
| 2026-04-29 18:07 | 49.22244 | 3.12172 | 38108 ft | 417 kts | 315° |
| 2026-04-29 18:08 | 49.26321 | 3.05943 | 38109 ft | 417 kts | 315° |
| 2026-04-29 18:08 | 49.30420 | 2.99664 | 38101 ft | 417 kts | 315° |
| 2026-04-29 18:09 | 49.34525 | 2.93362 | 38124 ft | 417 kts | 315° |
| 2026-04-29 18:09 | 49.38628 | 2.87045 | 38119 ft | 418 kts | 315° |
| 2026-04-29 18:10 | 49.42730 | 2.80715 | 38113 ft | 418 kts | 315° |
| 2026-04-29 18:10 | 49.46806 | 2.74414 | 38107 ft | 419 kts | 316° |
| 2026-04-29 18:11 | 49.51123 | 2.68427 | 38102 ft | 418 kts | 320° |
| 2026-04-29 18:11 | 49.55527 | 2.62572 | 38104 ft | 418 kts | 319° |
| 2026-04-29 18:12 | 49.59938 | 2.56712 | 38118 ft | 419 kts | 319° |
| 2026-04-29 18:12 | 49.64319 | 2.50863 | 38123 ft | 420 kts | 319° |
| 2026-04-29 18:13 | 49.68730 | 2.44949 | 38111 ft | 421 kts | 319° |
| 2026-04-29 18:13 | 49.73151 | 2.39006 | 38111 ft | 422 kts | 320° |
| 2026-04-29 18:14 | 49.77579 | 2.33034 | 38115 ft | 423 kts | 320° |
| 2026-04-29 18:14 | 49.82014 | 2.27039 | 38130 ft | 424 kts | 320° |
| 2026-04-29 18:15 | 49.86435 | 2.21055 | 38142 ft | 425 kts | 319° |
| 2026-04-29 18:15 | 49.90898 | 2.14994 | 38124 ft | 423 kts | 319° |
| 2026-04-29 18:16 | 49.95262 | 2.09052 | 38128 ft | 418 kts | 319° |
| 2026-04-29 18:16 | 49.99651 | 2.03060 | 38143 ft | 423 kts | 320° |
| 2026-04-29 18:17 | 50.04114 | 1.96951 | 38137 ft | 431 kts | 319° |
| 2026-04-29 18:17 | 50.08641 | 1.90742 | 38145 ft | 435 kts | 320° |
| 2026-04-29 18:18 | 50.13128 | 1.84569 | 38131 ft | 429 kts | 319° |
| 2026-04-29 18:18 | 50.17557 | 1.78460 | 38123 ft | 421 kts | 319° |
| 2026-04-29 18:19 | 50.21967 | 1.72362 | 38152 ft | 427 kts | 319° |
| 2026-04-29 18:19 | 50.26453 | 1.66143 | 38160 ft | 435 kts | 319° |
| 2026-04-29 18:20 | 50.31001 | 1.59822 | 38152 ft | 439 kts | 319° |
| 2026-04-29 18:20 | 50.35580 | 1.53438 | 38158 ft | 442 kts | 319° |
| 2026-04-29 18:21 | 50.40165 | 1.47030 | 38150 ft | 440 kts | 319° |
| 2026-04-29 18:21 | 50.44679 | 1.40703 | 38158 ft | 438 kts | 319° |
| 2026-04-29 18:22 | 50.49236 | 1.34301 | 38167 ft | 441 kts | 318° |
| 2026-04-29 18:22 | 50.53820 | 1.27843 | 38163 ft | 444 kts | 318° |
| 2026-04-29 18:23 | 50.58412 | 1.21315 | 38158 ft | 446 kts | 317° |
| 2026-04-29 18:23 | 50.62819 | 1.14427 | 38179 ft | 447 kts | 315° |
| 2026-04-29 18:24 | 50.67174 | 1.07411 | 38177 ft | 448 kts | 315° |
| 2026-04-29 18:24 | 50.71518 | 1.00463 | 38202 ft | 448 kts | 316° |
| 2026-04-29 18:25 | 50.75903 | 0.93478 | 38191 ft | 448 kts | 315° |
| 2026-04-29 18:25 | 50.80290 | 0.86473 | 38198 ft | 448 kts | 315° |
| 2026-04-29 18:26 | 50.84669 | 0.79460 | 38196 ft | 448 kts | 315° |
| 2026-04-29 18:26 | 50.89053 | 0.72449 | 38194 ft | 448 kts | 316° |
| 2026-04-29 18:27 | 50.93830 | 0.66042 | 37905 ft | 456 kts | 324° |
| 2026-04-29 18:27 | 50.96375 | 0.63015 | 37675 ft | 458 kts | 324° |
| 2026-04-29 18:27 | 50.98924 | 0.60016 | 37413 ft | 456 kts | 324° |
| 2026-04-29 18:27 | 51.01470 | 0.56999 | 37158 ft | 457 kts | 324° |
| 2026-04-29 18:28 | 51.03972 | 0.54000 | 36924 ft | 457 kts | 324° |
| 2026-04-29 18:28 | 51.06506 | 0.50928 | 36510 ft | 458 kts | 323° |
| 2026-04-29 18:28 | 51.09028 | 0.47848 | 35997 ft | 457 kts | 323° |
| 2026-04-29 18:28 | 51.11547 | 0.44755 | 35411 ft | 459 kts | 323° |
| 2026-04-29 18:29 | 51.14077 | 0.41639 | 34824 ft | 460 kts | 323° |
| 2026-04-29 18:29 | 51.15755 | 0.39570 | 34414 ft | 461 kts | 323° |
| 2026-04-29 18:29 | 51.19155 | 0.35368 | 33563 ft | 462 kts | 323° |
| 2026-04-29 18:29 | 51.21683 | 0.32240 | 33131 ft | 458 kts | 323° |
| 2026-04-29 18:30 | 51.24194 | 0.29128 | 32650 ft | 455 kts | 323° |
| 2026-04-29 18:30 | 51.26652 | 0.26079 | 32222 ft | 452 kts | 323° |
| 2026-04-29 18:30 | 51.29119 | 0.23017 | 31773 ft | 448 kts | 323° |
| 2026-04-29 18:30 | 51.31573 | 0.19966 | 31336 ft | 445 kts | 323° |
| 2026-04-29 18:31 | 51.34006 | 0.16937 | 30836 ft | 442 kts | 323° |
| 2026-04-29 18:31 | 51.36418 | 0.13930 | 30415 ft | 439 kts | 323° |
| 2026-04-29 18:31 | 51.38821 | 0.10930 | 29951 ft | 436 kts | 323° |
| 2026-04-29 18:31 | 51.41206 | 0.07948 | 29487 ft | 433 kts | 323° |
| 2026-04-29 18:32 | 51.43569 | 0.04990 | 29082 ft | 429 kts | 323° |
| 2026-04-29 18:32 | 51.48228 | -0.00854 | 28204 ft | 422 kts | 323° |
| 2026-04-29 18:32 | 51.50525 | -0.03740 | 27810 ft | 417 kts | 323° |
| 2026-04-29 18:33 | 51.52804 | -0.06608 | 27459 ft | 415 kts | 323° |
| 2026-04-29 18:33 | 51.55064 | -0.09456 | 27065 ft | 412 kts | 323° |
| 2026-04-29 18:33 | 51.57280 | -0.12252 | 26675 ft | 409 kts | 323° |
| 2026-04-29 18:33 | 51.59513 | -0.15072 | 26280 ft | 407 kts | 322° |
| 2026-04-29 18:34 | 51.61734 | -0.17882 | 25894 ft | 405 kts | 322° |
| 2026-04-29 18:34 | 51.63202 | -0.19741 | 25645 ft | 404 kts | 322° |
| 2026-04-29 18:34 | 51.66152 | -0.23470 | 25131 ft | 402 kts | 322° |
| 2026-04-29 18:34 | 51.68361 | -0.26246 | 24757 ft | 404 kts | 323° |
| 2026-04-29 18:35 | 51.70595 | -0.29046 | 24391 ft | 408 kts | 323° |
| 2026-04-29 18:35 | 51.72843 | -0.31859 | 24027 ft | 411 kts | 323° |
| 2026-04-29 18:35 | 51.75101 | -0.34683 | 23598 ft | 410 kts | 323° |
| 2026-04-29 18:35 | 51.77347 | -0.37494 | 23161 ft | 408 kts | 323° |
| 2026-04-29 18:36 | 51.79556 | -0.40269 | 22612 ft | 406 kts | 323° |
| 2026-04-29 18:36 | 51.81777 | -0.43071 | 22180 ft | 404 kts | 323° |
| 2026-04-29 18:36 | 51.83984 | -0.45873 | 21764 ft | 403 kts | 323° |
| 2026-04-29 18:36 | 51.86179 | -0.48678 | 21363 ft | 401 kts | 323° |
| 2026-04-29 18:37 | 51.88356 | -0.51474 | 20957 ft | 399 kts | 323° |
| 2026-04-29 18:37 | 51.90519 | -0.54267 | 20561 ft | 397 kts | 323° |
| 2026-04-29 18:37 | 51.92665 | -0.57052 | 20168 ft | 395 kts | 323° |
| 2026-04-29 18:37 | 51.94802 | -0.59839 | 19787 ft | 394 kts | 323° |
| 2026-04-29 18:38 | 51.96930 | -0.62628 | 19402 ft | 392 kts | 323° |
| 2026-04-29 18:38 | 51.99008 | -0.65365 | 19030 ft | 389 kts | 323° |
| 2026-04-29 18:38 | 52.01124 | -0.68169 | 18658 ft | 386 kts | 323° |
| 2026-04-29 18:38 | 52.03164 | -0.70886 | 18273 ft | 383 kts | 323° |
| 2026-04-29 18:39 | 52.05217 | -0.73627 | 17845 ft | 381 kts | 322° |
| 2026-04-29 18:39 | 52.07260 | -0.76350 | 17422 ft | 378 kts | 322° |
| 2026-04-29 18:39 | 52.09290 | -0.79050 | 17010 ft | 376 kts | 322° |
| 2026-04-29 18:39 | 52.11311 | -0.81733 | 16601 ft | 374 kts | 322° |
| 2026-04-29 18:40 | 52.13322 | -0.84399 | 16205 ft | 372 kts | 322° |
| 2026-04-29 18:40 | 52.15323 | -0.87045 | 15801 ft | 370 kts | 322° |
| 2026-04-29 18:40 | 52.17317 | -0.89678 | 15412 ft | 368 kts | 322° |
| 2026-04-29 18:40 | 52.19273 | -0.92256 | 15029 ft | 366 kts | 322° |
| 2026-04-29 18:41 | 52.25175 | -1.00014 | 13903 ft | 361 kts | 322° |
| 2026-04-29 18:41 | 52.27129 | -1.02576 | 13486 ft | 360 kts | 322° |
| 2026-04-29 18:42 | 52.29073 | -1.05129 | 13062 ft | 358 kts | 322° |
| 2026-04-29 18:42 | 52.31011 | -1.07676 | 12657 ft | 357 kts | 322° |
| 2026-04-29 18:42 | 52.32936 | -1.10215 | 12255 ft | 355 kts | 322° |
| 2026-04-29 18:42 | 52.34852 | -1.12747 | 11849 ft | 354 kts | 322° |
| 2026-04-29 18:43 | 52.36664 | -1.15452 | 11436 ft | 354 kts | 308° |
| 2026-04-29 18:43 | 52.37677 | -1.19018 | 11049 ft | 352 kts | 279° |
| 2026-04-29 18:43 | 52.37731 | -1.22978 | 10704 ft | 346 kts | 263° |
| 2026-04-29 18:43 | 52.37555 | -1.26893 | 10322 ft | 345 kts | 264° |
| 2026-04-29 18:44 | 52.37373 | -1.30800 | 9913 ft | 343 kts | 263° |
| 2026-04-29 18:44 | 52.37192 | -1.34646 | 9584 ft | 332 kts | 263° |
| 2026-04-29 18:44 | 52.37020 | -1.38299 | 9498 ft | 313 kts | 263° |
| 2026-04-29 18:44 | 52.36857 | -1.41761 | 9385 ft | 297 kts | 263° |
| 2026-04-29 18:45 | 52.36701 | -1.45046 | 9279 ft | 282 kts | 263° |
| 2026-04-29 18:45 | 52.36551 | -1.48191 | 9183 ft | 274 kts | 263° |
| 2026-04-29 18:45 | 52.36401 | -1.51291 | 9092 ft | 273 kts | 262° |
| 2026-04-29 18:45 | 52.36251 | -1.54383 | 9019 ft | 273 kts | 262° |
| 2026-04-29 18:46 | 52.36104 | -1.57444 | 8950 ft | 273 kts | 262° |
| 2026-04-29 18:46 | 52.35953 | -1.60543 | 8882 ft | 273 kts | 263° |
| 2026-04-29 18:46 | 52.35802 | -1.63644 | 8808 ft | 274 kts | 262° |
| 2026-04-29 18:46 | 52.35800 | -1.66751 | 8702 ft | 277 kts | 281° |
| 2026-04-29 18:47 | 52.36441 | -1.69705 | 8654 ft | 276 kts | 294° |
| 2026-04-29 18:47 | 52.37233 | -1.72565 | 8575 ft | 276 kts | 295° |
| 2026-04-29 18:47 | 52.38046 | -1.75435 | 8401 ft | 281 kts | 295° |
| 2026-04-29 18:47 | 52.38878 | -1.78358 | 8150 ft | 283 kts | 295° |
| 2026-04-29 18:48 | 52.39703 | -1.81248 | 7939 ft | 276 kts | 295° |
| 2026-04-29 18:48 | 52.40507 | -1.84062 | 7681 ft | 270 kts | 295° |
| 2026-04-29 18:48 | 52.41308 | -1.86810 | 7418 ft | 264 kts | 301° |
| 2026-04-29 18:48 | 52.42501 | -1.88996 | 7147 ft | 254 kts | 327° |
| 2026-04-29 18:49 | 52.43896 | -1.90633 | 6904 ft | 248 kts | 330° |
| 2026-04-29 18:49 | 52.45310 | -1.92230 | 6667 ft | 246 kts | 330° |
| 2026-04-29 18:49 | 52.46719 | -1.93814 | 6418 ft | 246 kts | 330° |
| 2026-04-29 18:49 | 52.48141 | -1.95414 | 6054 ft | 250 kts | 330° |
| 2026-04-29 18:50 | 52.49576 | -1.97040 | 5707 ft | 252 kts | 330° |
| 2026-04-29 18:50 | 52.51012 | -1.98682 | 5351 ft | 251 kts | 330° |
| 2026-04-29 18:50 | 52.52436 | -2.00315 | 5052 ft | 247 kts | 330° |
| 2026-04-29 18:50 | 52.53818 | -2.01899 | 4810 ft | 239 kts | 330° |
| 2026-04-29 18:51 | 52.55149 | -2.03403 | 4550 ft | 230 kts | 336° |
| 2026-04-29 18:51 | 52.56605 | -2.04061 | 4264 ft | 208 kts | 13° |
| 2026-04-29 18:51 | 52.57839 | -2.03308 | 4001 ft | 179 kts | 52° |
| 2026-04-29 18:51 | 52.58476 | -2.01713 | 3893 ft | 164 kts | 71° |
| 2026-04-29 18:52 | 52.58995 | -2.00037 | 3760 ft | 164 kts | 70° |
| 2026-04-29 18:52 | 52.59506 | -1.98388 | 3634 ft | 160 kts | 70° |
| 2026-04-29 18:52 | 52.59912 | -1.96723 | 3480 ft | 155 kts | 89° |
| 2026-04-29 18:52 | 52.59621 | -1.95067 | 3330 ft | 155 kts | 118° |
| 2026-04-29 18:53 | 52.59032 | -1.93553 | 3132 ft | 158 kts | 120° |
| 2026-04-29 18:53 | 52.58424 | -1.92059 | 2922 ft | 156 kts | 120° |
| 2026-04-29 18:53 | 52.57821 | -1.90611 | 2729 ft | 155 kts | 120° |
| 2026-04-29 18:53 | 52.57200 | -1.89150 | 2574 ft | 159 kts | 120° |
| 2026-04-29 18:54 | 52.56545 | -1.87649 | 2548 ft | 163 kts | 122° |
| 2026-04-29 18:54 | 52.55716 | -1.86354 | 2516 ft | 165 kts | 135° |
| 2026-04-29 18:54 | 52.54771 | -1.85252 | 2347 ft | 167 kts | 137° |
| 2026-04-29 18:54 | 52.53811 | -1.84185 | 2128 ft | 164 kts | 137° |
| 2026-04-29 18:55 | 52.52901 | -1.83177 | 1916 ft | 152 kts | 136° |
| 2026-04-29 18:55 | 52.52061 | -1.82241 | 1738 ft | 139 kts | 136° |
| 2026-04-29 18:55 | 52.51255 | -1.81340 | 1524 ft | 140 kts | 136° |
| 2026-04-29 18:55 | 52.50461 | -1.80457 | 1348 ft | 141 kts | 136° |
| 2026-04-29 18:56 | 52.49638 | -1.79538 | 1140 ft | 143 kts | 144° |
| 2026-04-29 18:56 | 52.48822 | -1.78626 | 964 ft | 143 kts | 140° |
| 2026-04-29 18:56 | 52.47983 | -1.77690 | 769 ft | 148 kts | 140° |
| 2026-04-29 18:56 | 52.47122 | -1.76732 | 557 ft | 151 kts | 137° |
| 2026-04-29 18:57 | 52.46254 | -1.75770 | 351 ft | 150 kts | 139° |
| 2026-04-29 18:57 | 52.45486 | -1.74901 | 322 ft | 108 kts | 149° |
| 2026-04-29 18:57 | 52.45039 | -1.74418 | 329 ft | 40 kts | 147° |
| 2026-04-29 18:57 | 52.44945 | -1.74295 | 326 ft | 9 kts | 110° |
| 2026-04-29 18:58 | 52.44946 | -1.74252 | 327 ft | 2 kts | 80° |
| 2026-04-29 18:58 | 52.44951 | -1.74215 | 326 ft | 6 kts | 77° |
| 2026-04-29 18:58 | 52.44960 | -1.74153 | 327 ft | 6 kts | 76° |
| 2026-04-29 18:58 | 52.44971 | -1.74087 | 324 ft | 7 kts | 75° |
| 2026-04-29 18:59 | 52.44986 | -1.73989 | 322 ft | 10 kts | 77° |
| 2026-04-29 18:59 | 52.45013 | -1.73889 | 322 ft | 10 kts | 56° |
| 2026-04-29 18:59 | 52.45047 | -1.73800 | 322 ft | 8 kts | 73° |
| 2026-04-29 18:59 | 52.45034 | -1.73709 | 322 ft | 8 kts | 93° |
| 2026-04-29 19:00 | 52.45035 | -1.73630 | 320 ft | 5 kts | 89° |
| 2026-04-29 19:00 | 52.45036 | -1.73607 | 322 ft | 0 kts | 88° |